Terminal Aerodrome Forecast
Issued by NWS Corpus Christi, TX

Home | Current Version | Previous Version | Text Only | Print | Product List | Glossary On
Versions: 1 2 3 4 5 6 7 8 9 10 11 12 13
000
FTUS44 KCRP 201120
TAFVCT
TAF
KVCT 201120Z 2012/2112 VRB05KT P6SM VCSH FEW025
      TEMPO 2012/2013 5SM BR BKN018
     FM202000 16011KT P6SM SCT050
      TEMPO 2109/2112 5SM BR SCT018=

USA.gov is the U.S. government's official web portal to all federal, state and local government web resources and services.